Hermitage, Tennessee
Current Conditions -  °F | °C
As of 9:53 AM on Friday 21 Nov 2014 (Local Time) from KBNA Reporting Station
Clear Clear  
Wind Chill: 36°   Ceiling: Unl
Heat Index: 41°   Visibility: 10mi
Dew Point: 21°   Wind: 7mph
Humidity: 45%   Direction: 100°E
Pressure: 30.47"   Gusts: NA
Location:  36.2°N, 86.62°W
Report Text: KBNA 211553Z 10006KT 10SM CLR 05/M06 A3047 RMK AO2 SLP321 T00501061
Loading
Personal Weather Stations






























Interactive Weather Map New forecast layout! Learn more

10-Day Weather Forecast

Advertisements
Track Severe Weather on mobile